Archival Weather

Norman Y Mineta San Jose Intl

San Jose, California (KSJC)

Report from: Wednesday, February 21, 2024 5:53 AM PST
Current time: Sunday, June 16, 2024 11:45 PM PDT

Current weather – Weather history – Daily summaries
Weather forecast

Temperature7.8°C (46.0°F)
Dew point6.1°C (43.0°F)
Winds Calm
Visibility10 mi. (16.1 km)
Clouds Few clouds 1,100 ft. (335 m)
Altimeter30.12 in.Hg (1020 mB)
Relative humidity89 %
Density altitude-948 ft. (-289 m)
Sea-level pressure102.0 kPa (1020 mB, 30.11 in.Hg)
Remarks Automated weather observing station with precipitation discriminator
Flight conditions Visual Meteorological Conditions
Raw dataKSJC 211353Z 00000KT 10SM FEW011 08/06 A3012 RMK AO2 SLP197 T00780061
An error has occurred. This application may no longer respond until reloaded. Reload 🗙